sensor_id;sensor_type;location;lat;lon;timestamp;pressure;altitude;pressure_sealevel;temperature;humidity
71004;BME280;59025;42.050;-8.660;2022-10-03T00:00:01;101288.34;;;18.34;100.00
71004;BME280;59025;42.050;-8.660;2022-10-03T00:05:29;101279.38;;;18.41;100.00
71004;BME280;59025;42.050;-8.660;2022-10-03T00:08:09;101281.19;;;18.41;100.00
71004;BME280;59025;42.050;-8.660;2022-10-03T00:10:51;101282.31;;;18.45;100.00
71004;BME280;59025;42.050;-8.660;2022-10-03T00:13:27;101282.00;;;18.41;100.00
71004;BME280;59025;42.050;-8.660;2022-10-03T00:16:08;101281.19;;;18.41;100.00
71004;BME280;59025;42.050;-8.660;2022-10-03T00:18:50;101282.34;;;18.33;100.00
71004;BME280;59025;42.050;-8.660;2022-10-03T00:21:37;101289.25;;;18.28;100.00
71004;BME280;59025;42.050;-8.660;2022-10-03T00:24:19;101292.47;;;18.18;100.00
71004;BME280;59025;42.050;-8.660;2022-10-03T00:26:53;101297.47;;;18.08;100.00
71004;BME280;59025;42.050;-8.660;2022-10-03T00:29:35;101302.56;;;18.03;100.00
71004;BME280;59025;42.050;-8.660;2022-10-03T00:32:19;101303.59;;;18.02;100.00
71004;BME280;59025;42.050;-8.660;2022-10-03T00:35:11;101298.94;;;18.04;100.00
71004;BME280;59025;42.050;-8.660;2022-10-03T00:37:45;101300.44;;;18.00;100.00
71004;BME280;59025;42.050;-8.660;2022-10-03T00:40:39;101300.44;;;18.00;100.00
71004;BME280;59025;42.050;-8.660;2022-10-03T00:49:51;101290.34;;;17.92;100.00
71004;BME280;59025;42.050;-8.660;2022-10-03T00:55:28;101291.50;;;17.73;100.00
71004;BME280;59025;42.050;-8.660;2022-10-03T00:58:23;101290.38;;;17.69;100.00
71004;BME280;59025;42.050;-8.660;2022-10-03T01:00:57;101293.09;;;17.74;100.00
71004;BME280;59025;42.050;-8.660;2022-10-03T01:03:38;101291.75;;;17.72;100.00
71004;BME280;59025;42.050;-8.660;2022-10-03T01:06:23;101290.94;;;17.71;100.00
71004;BME280;59025;42.050;-8.660;2022-10-03T01:12:17;101300.34;;;17.61;100.00
71004;BME280;59025;42.050;-8.660;2022-10-03T01:15:09;101314.69;;;17.52;100.00
71004;BME280;59025;42.050;-8.660;2022-10-03T01:17:52;101299.22;;;17.45;100.00
71004;BME280;59025;42.050;-8.660;2022-10-03T01:20:29;101327.56;;;17.35;100.00
71004;BME280;59025;42.050;-8.660;2022-10-03T01:23:20;101325.06;;;17.29;100.00
71004;BME280;59025;42.050;-8.660;2022-10-03T01:26:10;101329.91;;;17.25;100.00
71004;BME280;59025;42.050;-8.660;2022-10-03T01:28:47;101330.38;;;17.34;100.00
71004;BME280;59025;42.050;-8.660;2022-10-03T01:31:40;101331.19;;;17.34;100.00
71004;BME280;59025;42.050;-8.660;2022-10-03T01:34:15;101328.13;;;17.37;100.00
71004;BME280;59025;42.050;-8.660;2022-10-03T01:36:53;101322.50;;;17.40;100.00
71004;BME280;59025;42.050;-8.660;2022-10-03T01:39:28;101313.38;;;17.49;100.00
71004;BME280;59025;42.050;-8.660;2022-10-03T01:42:02;101303.03;;;17.54;100.00
71004;BME280;59025;42.050;-8.660;2022-10-03T01:44:46;101307.25;;;17.55;100.00
71004;BME280;59025;42.050;-8.660;2022-10-03T01:47:23;101308.03;;;17.56;100.00
71004;BME280;59025;42.050;-8.660;2022-10-03T01:49:55;101299.66;;;17.54;100.00
71004;BME280;59025;42.050;-8.660;2022-10-03T01:52:32;101295.03;;;17.56;100.00
71004;BME280;59025;42.050;-8.660;2022-10-03T01:55:11;101294.81;;;17.57;100.00
71004;BME280;59025;42.050;-8.660;2022-10-03T01:57:45;101295.81;;;17.56;100.00
71004;BME280;59025;42.050;-8.660;2022-10-03T02:00:19;101293.00;;;17.58;100.00
71004;BME280;59025;42.050;-8.660;2022-10-03T02:02:51;101299.66;;;17.54;100.00
71004;BME280;59025;42.050;-8.660;2022-10-03T02:05:27;101296.84;;;17.55;100.00
71004;BME280;59025;42.050;-8.660;2022-10-03T02:08:06;101286.44;;;17.55;100.00
71004;BME280;59025;42.050;-8.660;2022-10-03T02:10:44;101284.84;;;17.54;100.00
71004;BME280;59025;42.050;-8.660;2022-10-03T02:13:20;101292.88;;;17.53;100.00
71004;BME280;59025;42.050;-8.660;2022-10-03T02:15:56;101291.06;;;17.53;100.00
71004;BME280;59025;42.050;-8.660;2022-10-03T02:18:36;101285.31;;;17.51;100.00
71004;BME280;59025;42.050;-8.660;2022-10-03T02:21:09;101286.97;;;17.46;100.00
71004;BME280;59025;42.050;-8.660;2022-10-03T02:23:40;101280.31;;;17.50;100.00
71004;BME280;59025;42.050;-8.660;2022-10-03T02:26:41;101282.59;;;17.46;100.00
71004;BME280;59025;42.050;-8.660;2022-10-03T02:29:33;101269.78;;;17.45;100.00
71004;BME280;59025;42.050;-8.660;2022-10-03T02:32:33;101266.97;;;17.46;100.00
71004;BME280;59025;42.050;-8.660;2022-10-03T02:35:12;101271.03;;;17.42;100.00
71004;BME280;59025;42.050;-8.660;2022-10-03T02:38:12;101277.56;;;17.33;100.00
71004;BME280;59025;42.050;-8.660;2022-10-03T02:41:12;101291.25;;;17.17;100.00
71004;BME280;59025;42.050;-8.660;2022-10-03T02:44:14;101305.34;;;17.10;100.00
71004;BME280;59025;42.050;-8.660;2022-10-03T02:47:15;101300.59;;;17.07;100.00
71004;BME280;59025;42.050;-8.660;2022-10-03T02:50:27;101296.41;;;17.06;100.00
71004;BME280;59025;42.050;-8.660;2022-10-03T02:59:51;101292.91;;;17.00;100.00
71004;BME280;59025;42.050;-8.660;2022-10-03T03:12:27;101264.88;;;17.02;100.00
71004;BME280;59025;42.050;-8.660;2022-10-03T03:18:07;101285.06;;;16.89;100.00
71004;BME280;59025;42.050;-8.660;2022-10-03T03:20:55;101287.31;;;16.74;100.00
71004;BME280;59025;42.050;-8.660;2022-10-03T03:23:37;101295.50;;;16.59;100.00
71004;BME280;59025;42.050;-8.660;2022-10-03T03:26:29;101305.16;;;16.52;100.00
71004;BME280;59025;42.050;-8.660;2022-10-03T03:29:11;101312.81;;;16.47;100.00
71004;BME280;59025;42.050;-8.660;2022-10-03T03:31:48;101312.03;;;16.47;100.00
71004;BME280;59025;42.050;-8.660;2022-10-03T03:34:23;101300.31;;;16.56;100.00
71004;BME280;59025;42.050;-8.660;2022-10-03T03:36:58;101301.47;;;16.60;100.00
71004;BME280;59025;42.050;-8.660;2022-10-03T03:39:45;101298.31;;;16.58;100.00
71004;BME280;59025;42.050;-8.660;2022-10-03T03:42:32;101294.47;;;16.60;100.00
71004;BME280;59025;42.050;-8.660;2022-10-03T03:45:33;101292.09;;;16.59;100.00
71004;BME280;59025;42.050;-8.660;2022-10-03T03:48:25;101292.66;;;16.61;100.00
71004;BME280;59025;42.050;-8.660;2022-10-03T03:51:12;101277.31;;;16.59;100.00
71004;BME280;59025;42.050;-8.660;2022-10-03T03:53:54;101285.09;;;16.59;100.00
71004;BME280;59025;42.050;-8.660;2022-10-03T03:56:46;101289.03;;;16.62;100.00
71004;BME280;59025;42.050;-8.660;2022-10-03T03:59:31;101285.53;;;16.56;100.00
71004;BME280;59025;42.050;-8.660;2022-10-03T04:02:17;101283.34;;;16.53;100.00
71004;BME280;59025;42.050;-8.660;2022-10-03T04:04:59;101287.56;;;16.54;100.00
71004;BME280;59025;42.050;-8.660;2022-10-03T04:07:47;101288.00;;;16.51;100.00
71004;BME280;59025;42.050;-8.660;2022-10-03T04:10:35;101295.66;;;16.46;100.00
71004;BME280;59025;42.050;-8.660;2022-10-03T04:16:36;101297.72;;;16.38;100.00
71004;BME280;59025;42.050;-8.660;2022-10-03T04:19:32;101298.19;;;16.35;100.00
71004;BME280;59025;42.050;-8.660;2022-10-03T04:22:14;101300.13;;;16.39;100.00
71004;BME280;59025;42.050;-8.660;2022-10-03T04:25:12;101295.50;;;16.41;100.00
71004;BME280;59025;42.050;-8.660;2022-10-03T04:30:49;101297.53;;;16.39;100.00
71004;BME280;59025;42.050;-8.660;2022-10-03T04:33:36;101295.44;;;16.30;100.00
71004;BME280;59025;42.050;-8.660;2022-10-03T04:36:47;101304.88;;;16.24;100.00
71004;BME280;59025;42.050;-8.660;2022-10-03T04:39:29;101300.34;;;16.20;100.00
71004;BME280;59025;42.050;-8.660;2022-10-03T04:42:07;101304.97;;;16.18;100.00
71004;BME280;59025;42.050;-8.660;2022-10-03T04:44:57;101301.22;;;16.14;100.00
71004;BME280;59025;42.050;-8.660;2022-10-03T04:47:32;101309.88;;;16.08;100.00
71004;BME280;59025;42.050;-8.660;2022-10-03T04:50:17;101312.09;;;16.04;100.00
71004;BME280;59025;42.050;-8.660;2022-10-03T04:52:56;101306.78;;;15.99;100.00
71004;BME280;59025;42.050;-8.660;2022-10-03T04:55:37;101300.22;;;15.97;100.00
71004;BME280;59025;42.050;-8.660;2022-10-03T04:58:16;101301.06;;;16.09;100.00
71004;BME280;59025;42.050;-8.660;2022-10-03T05:00:56;101305.84;;;16.12;100.00
71004;BME280;59025;42.050;-8.660;2022-10-03T05:03:36;101311.25;;;16.10;100.00
71004;BME280;59025;42.050;-8.660;2022-10-03T05:06:24;101298.25;;;16.10;100.00
71004;BME280;59025;42.050;-8.660;2022-10-03T05:09:00;101297.91;;;16.07;100.00
71004;BME280;59025;42.050;-8.660;2022-10-03T05:11:46;101304.31;;;16.04;100.00
71004;BME280;59025;42.050;-8.660;2022-10-03T05:14:25;101304.53;;;16.03;100.00
71004;BME280;59025;42.050;-8.660;2022-10-03T05:17:01;101309.31;;;16.06;100.00
71004;BME280;59025;42.050;-8.660;2022-10-03T05:22:48;101307.47;;;16.06;100.00
71004;BME280;59025;42.050;-8.660;2022-10-03T05:25:32;101291.91;;;16.06;100.00
71004;BME280;59025;42.050;-8.660;2022-10-03T05:28:13;101293.34;;;16.02;100.00
71004;BME280;59025;42.050;-8.660;2022-10-03T05:30:49;101287.72;;;16.05;100.00
71004;BME280;59025;42.050;-8.660;2022-10-03T05:33:29;101288.31;;;16.07;100.00
71004;BME280;59025;42.050;-8.660;2022-10-03T05:36:10;101291.69;;;16.08;100.00
71004;BME280;59025;42.050;-8.660;2022-10-03T05:39:01;101290.47;;;16.10;100.00
71004;BME280;59025;42.050;-8.660;2022-10-03T05:41:53;101290.84;;;16.14;100.00
71004;BME280;59025;42.050;-8.660;2022-10-03T05:44:29;101292.41;;;16.15;100.00
71004;BME280;59025;42.050;-8.660;2022-10-03T05:47:08;101290.84;;;16.14;100.00
71004;BME280;59025;42.050;-8.660;2022-10-03T05:53:34;101301.06;;;16.09;100.00
71004;BME280;59025;42.050;-8.660;2022-10-03T05:56:18;101301.72;;;16.04;100.00
71004;BME280;59025;42.050;-8.660;2022-10-03T06:02:03;101306.13;;;16.04;100.00
71004;BME280;59025;42.050;-8.660;2022-10-03T06:07:28;101310.22;;;15.93;100.00
71004;BME280;59025;42.050;-8.660;2022-10-03T06:10:17;101316.06;;;15.89;100.00
71004;BME280;59025;42.050;-8.660;2022-10-03T06:12:58;101319.88;;;15.86;100.00
71004;BME280;59025;42.050;-8.660;2022-10-03T06:15:47;101323.91;;;15.82;100.00
71004;BME280;59025;42.050;-8.660;2022-10-03T06:18:58;101335.94;;;15.77;100.00
71004;BME280;59025;42.050;-8.660;2022-10-03T06:37:51;101333.13;;;15.78;100.00
71004;BME280;59025;42.050;-8.660;2022-10-03T06:43:43;101328.28;;;15.82;100.00
71004;BME280;59025;42.050;-8.660;2022-10-03T06:46:41;101322.03;;;15.89;100.00
71004;BME280;59025;42.050;-8.660;2022-10-03T06:49:29;101327.38;;;15.94;100.00
71004;BME280;59025;42.050;-8.660;2022-10-03T06:52:40;101320.16;;;15.96;100.00
71004;BME280;59025;42.050;-8.660;2022-10-03T06:55:38;101320.03;;;16.09;100.00
71004;BME280;59025;42.050;-8.660;2022-10-03T06:58:37;101330.69;;;16.19;100.00
71004;BME280;59025;42.050;-8.660;2022-10-03T07:01:41;101321.47;;;16.23;100.00
71004;BME280;59025;42.050;-8.660;2022-10-03T07:07:50;101319.63;;;16.48;100.00
71004;BME280;59025;42.050;-8.660;2022-10-03T07:10:35;101321.00;;;16.51;100.00
71004;BME280;59025;42.050;-8.660;2022-10-03T07:13:33;101329.13;;;16.54;100.00
71004;BME280;59025;42.050;-8.660;2022-10-03T07:16:36;101337.50;;;16.56;100.00
71004;BME280;59025;42.050;-8.660;2022-10-03T07:19:38;101322.81;;;16.80;100.00
71004;BME280;59025;42.050;-8.660;2022-10-03T07:25:50;101320.09;;;16.86;100.00
71004;BME280;59025;42.050;-8.660;2022-10-03T07:28:49;101337.06;;;16.89;100.00
71004;BME280;59025;42.050;-8.660;2022-10-03T07:31:33;101328.59;;;16.93;100.00
71004;BME280;59025;42.050;-8.660;2022-10-03T07:37:33;101331.47;;;17.15;100.00
71004;BME280;59025;42.050;-8.660;2022-10-03T07:40:47;101326.88;;;17.28;100.00
71004;BME280;59025;42.050;-8.660;2022-10-03T07:43:46;101326.88;;;17.28;100.00
71004;BME280;59025;42.050;-8.660;2022-10-03T07:46:43;101335.72;;;17.39;100.00
71004;BME280;59025;42.050;-8.660;2022-10-03T07:49:41;101329.19;;;17.48;100.00
71004;BME280;59025;42.050;-8.660;2022-10-03T07:52:47;101340.50;;;17.42;100.00
71004;BME280;59025;42.050;-8.660;2022-10-03T07:55:29;101338.44;;;17.32;100.00
71004;BME280;59025;42.050;-8.660;2022-10-03T07:58:26;101348.84;;;17.32;100.00
71004;BME280;59025;42.050;-8.660;2022-10-03T08:07:52;101356.00;;;17.48;100.00
71004;BME280;59025;42.050;-8.660;2022-10-03T08:10:51;101343.56;;;17.73;100.00
71004;BME280;59025;42.050;-8.660;2022-10-03T08:13:33;101336.41;;;18.03;100.00
71004;BME280;59025;42.050;-8.660;2022-10-03T08:16:13;101321.25;;;18.00;100.00
71004;BME280;59025;42.050;-8.660;2022-10-03T08:19:08;101334.28;;;18.00;100.00
71004;BME280;59025;42.050;-8.660;2022-10-03T08:22:02;101328.25;;;18.11;100.00
71004;BME280;59025;42.050;-8.660;2022-10-03T08:25:01;101337.66;;;18.01;100.00
71004;BME280;59025;42.050;-8.660;2022-10-03T08:27:54;101338.53;;;18.18;100.00
71004;BME280;59025;42.050;-8.660;2022-10-03T08:30:37;101336.94;;;18.28;100.00
71004;BME280;59025;42.050;-8.660;2022-10-03T08:33:24;101338.41;;;18.24;100.00
71004;BME280;59025;42.050;-8.660;2022-10-03T08:36:09;101347.91;;;18.30;100.00
71004;BME280;59025;42.050;-8.660;2022-10-03T08:38:59;101340.47;;;18.34;100.00
71004;BME280;59025;42.050;-8.660;2022-10-03T08:42:02;101338.28;;;18.42;100.00
71004;BME280;59025;42.050;-8.660;2022-10-03T08:45:13;101336.44;;;18.82;100.00
71004;BME280;59025;42.050;-8.660;2022-10-03T08:48:18;101316.41;;;19.65;
71004;BME280;59025;42.050;-8.660;2022-10-03T08:51:44;101301.31;;;19.34;100.00
71004;BME280;59025;42.050;-8.660;2022-10-03T09:00:48;101308.09;;;21.02;100.00
71004;BME280;59025;42.050;-8.660;2022-10-03T09:06:55;101293.69;;;22.39;100.00
71004;BME280;59025;42.050;-8.660;2022-10-03T09:09:51;101296.94;;;22.91;100.00
71004;BME280;59025;42.050;-8.660;2022-10-03T09:12:50;101288.28;;;23.26;100.00
71004;BME280;59025;42.050;-8.660;2022-10-03T09:15:47;101293.50;;;23.56;100.00
71004;BME280;59025;42.050;-8.660;2022-10-03T09:21:41;101291.34;;;23.73;100.00
71004;BME280;59025;42.050;-8.660;2022-10-03T09:24:28;101292.75;;;24.19;100.00
71004;BME280;59025;42.050;-8.660;2022-10-03T09:27:23;101286.72;;;24.67;100.00
71004;BME280;59025;42.050;-8.660;2022-10-03T09:30:22;101290.88;;;25.06;100.00
71004;BME280;59025;42.050;-8.660;2022-10-03T09:39:42;101295.81;;;25.41;100.00
71004;BME280;59025;42.050;-8.660;2022-10-03T09:45:54;101287.22;;;26.06;100.00
71004;BME280;59025;42.050;-8.660;2022-10-03T09:48:48;101291.84;;;26.33;100.00
71004;BME280;59025;42.050;-8.660;2022-10-03T09:51:33;101290.06;;;26.65;100.00
71004;BME280;59025;42.050;-8.660;2022-10-03T09:57:48;101289.53;;;27.00;100.00
71004;BME280;59025;42.050;-8.660;2022-10-03T10:00:21;101274.66;;;27.04;100.00
71004;BME280;59025;42.050;-8.660;2022-10-03T10:03:11;101272.16;;;26.94;100.00
71004;BME280;59025;42.050;-8.660;2022-10-03T10:15:32;101268.88;;;27.48;100.00
71004;BME280;59025;42.050;-8.660;2022-10-03T10:18:26;101270.13;;;27.77;100.00
71004;BME280;59025;42.050;-8.660;2022-10-03T10:30:55;101274.53;;;28.31;100.00
71004;BME280;59025;42.050;-8.660;2022-10-03T10:40:04;101267.50;;;28.40;100.00
71004;BME280;59025;42.050;-8.660;2022-10-03T10:52:05;101260.84;;;29.17;100.00
71004;BME280;59025;42.050;-8.660;2022-10-03T11:01:47;101275.78;;;29.52;100.00
71004;BME280;59025;42.050;-8.660;2022-10-03T11:04:59;101276.88;;;29.51;100.00
71004;BME280;59025;42.050;-8.660;2022-10-03T11:07:57;101259.00;;;29.26;100.00
71004;BME280;59025;42.050;-8.660;2022-10-03T11:10:35;101269.78;;;29.29;100.00
71004;BME280;59025;42.050;-8.660;2022-10-03T11:16:51;101255.47;;;29.47;100.00
71004;BME280;59025;42.050;-8.660;2022-10-03T11:26:44;101251.75;;;29.48;100.00
71004;BME280;59025;42.050;-8.660;2022-10-03T11:32:58;101239.22;;;29.96;100.00
71004;BME280;59025;42.050;-8.660;2022-10-03T11:36:10;101259.25;;;30.11;100.00
71004;BME280;59025;42.050;-8.660;2022-10-03T11:38:54;101249.84;;;30.05;100.00
71004;BME280;59025;42.050;-8.660;2022-10-03T11:41:34;101252.53;;;30.22;100.00
71004;BME280;59025;42.050;-8.660;2022-10-03T11:44:18;101248.94;;;30.18;100.00
71004;BME280;59025;42.050;-8.660;2022-10-03T11:47:11;101230.28;;;29.67;100.00
71004;BME280;59025;42.050;-8.660;2022-10-03T11:52:57;101226.38;;;29.73;100.00
71004;BME280;59025;42.050;-8.660;2022-10-03T11:55:34;101213.94;;;29.82;100.00
71004;BME280;59025;42.050;-8.660;2022-10-03T12:01:18;101217.59;;;29.47;100.00
71004;BME280;59025;42.050;-8.660;2022-10-03T12:03:58;101212.81;;;29.18;100.00
71004;BME280;59025;42.050;-8.660;2022-10-03T12:06:56;101210.00;;;29.15;100.00
71004;BME280;59025;42.050;-8.660;2022-10-03T12:09:59;101207.47;;;29.10;100.00
71004;BME280;59025;42.050;-8.660;2022-10-03T12:12:42;101222.94;;;29.16;100.00
71004;BME280;59025;42.050;-8.660;2022-10-03T12:15:30;101211.13;;;29.22;100.00
71004;BME280;59025;42.050;-8.660;2022-10-03T12:18:08;101208.78;;;29.29;100.00
71004;BME280;59025;42.050;-8.660;2022-10-03T12:21:02;101207.16;;;29.11;100.00
71004;BME280;59025;42.050;-8.660;2022-10-03T12:23:52;101203.25;;;29.09;100.00
71004;BME280;59025;42.050;-8.660;2022-10-03T12:26:29;101207.00;;;29.08;100.00
71004;BME280;59025;42.050;-8.660;2022-10-03T12:29:00;101213.56;;;29.10;100.00
71004;BME280;59025;42.050;-8.660;2022-10-03T12:31:34;101204.91;;;28.96;100.00
71004;BME280;59025;42.050;-8.660;2022-10-03T12:34:17;101200.44;;;29.05;100.00
71004;BME280;59025;42.050;-8.660;2022-10-03T12:36:51;101199.97;;;29.03;100.00
71004;BME280;59025;42.050;-8.660;2022-10-03T12:39:35;101216.75;;;29.29;100.00
71004;BME280;59025;42.050;-8.660;2022-10-03T12:42:19;101213.00;;;29.30;100.00
71004;BME280;59025;42.050;-8.660;2022-10-03T12:44:55;101195.78;;;29.11;100.00
71004;BME280;59025;42.050;-8.660;2022-10-03T12:47:36;101203.84;;;28.97;100.00
71004;BME280;59025;42.050;-8.660;2022-10-03T12:50:24;101200.44;;;29.05;100.00
71004;BME280;59025;42.050;-8.660;2022-10-03T12:53:06;101194.06;;;29.06;100.00
71004;BME280;59025;42.050;-8.660;2022-10-03T12:55:41;101180.53;;;29.16;100.00
71004;BME280;59025;42.050;-8.660;2022-10-03T12:58:19;101185.69;;;29.21;100.00
71004;BME280;59025;42.050;-8.660;2022-10-03T13:00:58;101198.91;;;29.04;100.00
71004;BME280;59025;42.050;-8.660;2022-10-03T13:03:36;101186.25;;;29.01;100.00
71004;BME280;59025;42.050;-8.660;2022-10-03T13:09:12;101179.41;;;29.09;100.00
71004;BME280;59025;42.050;-8.660;2022-10-03T13:11:59;101181.91;;;29.05;100.00
71004;BME280;59025;42.050;-8.660;2022-10-03T13:17:33;101185.84;;;28.86;100.00
71004;BME280;59025;42.050;-8.660;2022-10-03T13:20:10;101169.78;;;28.82;100.00
71004;BME280;59025;42.050;-8.660;2022-10-03T13:22:44;101175.06;;;28.82;100.00
71004;BME280;59025;42.050;-8.660;2022-10-03T13:25:19;101172.38;;;28.74;100.00
71004;BME280;59025;42.050;-8.660;2022-10-03T13:27:54;101173.44;;;28.64;100.00
71004;BME280;59025;42.050;-8.660;2022-10-03T13:30:29;101184.38;;;28.71;100.00
71004;BME280;59025;42.050;-8.660;2022-10-03T13:33:02;101172.56;;;28.77;100.00
71004;BME280;59025;42.050;-8.660;2022-10-03T13:35:38;101167.38;;;28.72;100.00
71004;BME280;59025;42.050;-8.660;2022-10-03T13:38:46;101174.94;;;28.57;100.00
71004;BME280;59025;42.050;-8.660;2022-10-03T13:41:30;101161.47;;;28.45;100.00
71004;BME280;59025;42.050;-8.660;2022-10-03T13:44:06;101158.38;;;28.51;100.00
71004;BME280;59025;42.050;-8.660;2022-10-03T13:46:42;101168.63;;;28.44;100.00
71004;BME280;59025;42.050;-8.660;2022-10-03T13:49:23;101155.28;;;28.49;100.00
71004;BME280;59025;42.050;-8.660;2022-10-03T13:51:59;101160.09;;;28.47;100.00
71004;BME280;59025;42.050;-8.660;2022-10-03T13:54:58;101149.97;;;28.49;100.00
71004;BME280;59025;42.050;-8.660;2022-10-03T13:57:31;101156.19;;;28.45;100.00
71004;BME280;59025;42.050;-8.660;2022-10-03T14:00:05;101143.59;;;28.50;100.00
71004;BME280;59025;42.050;-8.660;2022-10-03T14:02:45;101154.69;;;28.52;100.00
71004;BME280;59025;42.050;-8.660;2022-10-03T14:05:31;101145.72;;;28.40;100.00
71004;BME280;59025;42.050;-8.660;2022-10-03T14:08:08;101144.91;;;28.39;100.00
71004;BME280;59025;42.050;-8.660;2022-10-03T14:11:03;101154.03;;;28.33;100.00
71004;BME280;59025;42.050;-8.660;2022-10-03T14:13:44;101144.63;;;28.41;100.00
71004;BME280;59025;42.050;-8.660;2022-10-03T14:16:24;101138.78;;;28.30;100.00
71004;BME280;59025;42.050;-8.660;2022-10-03T14:18:59;101138.09;;;28.25;100.00
71004;BME280;59025;42.050;-8.660;2022-10-03T14:21:52;101134.19;;;28.22;100.00
71004;BME280;59025;42.050;-8.660;2022-10-03T14:24:33;101143.69;;;28.23;100.00
71004;BME280;59025;42.050;-8.660;2022-10-03T14:27:14;101153.41;;;28.28;100.00
71004;BME280;59025;42.050;-8.660;2022-10-03T14:29:59;101152.31;;;28.29;100.00
71004;BME280;59025;42.050;-8.660;2022-10-03T14:32:34;101151.53;;;28.06;100.00
71004;BME280;59025;42.050;-8.660;2022-10-03T14:35:08;101145.41;;;27.97;100.00
71004;BME280;59025;42.050;-8.660;2022-10-03T14:37:45;101142.06;;;27.92;100.00
71004;BME280;59025;42.050;-8.660;2022-10-03T14:40:21;101141.19;;;27.96;100.00
71004;BME280;59025;42.050;-8.660;2022-10-03T14:43:09;101161.97;;;27.89;100.00
71004;BME280;59025;42.050;-8.660;2022-10-03T14:45:44;101145.56;;;27.79;100.00
71004;BME280;59025;42.050;-8.660;2022-10-03T14:48:18;101135.16;;;27.82;100.00
71004;BME280;59025;42.050;-8.660;2022-10-03T14:50:50;101159.03;;;27.77;100.00
71004;BME280;59025;42.050;-8.660;2022-10-03T14:53:22;101145.34;;;27.75;100.00
71004;BME280;59025;42.050;-8.660;2022-10-03T14:55:57;101145.81;;;27.77;100.00
71004;BME280;59025;42.050;-8.660;2022-10-03T14:58:28;101137.31;;;27.80;100.00
71004;BME280;59025;42.050;-8.660;2022-10-03T15:01:03;101129.69;;;27.79;100.00
71004;BME280;59025;42.050;-8.660;2022-10-03T15:03:37;101128.59;;;27.80;100.00
71004;BME280;59025;42.050;-8.660;2022-10-03T15:06:30;101134.06;;;27.83;100.00
71004;BME280;59025;42.050;-8.660;2022-10-03T15:09:03;101133.31;;;27.83;100.00
71004;BME280;59025;42.050;-8.660;2022-10-03T15:11:36;101128.88;;;27.78;100.00
71004;BME280;59025;42.050;-8.660;2022-10-03T15:14:11;101136.13;;;27.86;100.00
71004;BME280;59025;42.050;-8.660;2022-10-03T15:16:44;101131.94;;;27.85;100.00
71004;BME280;59025;42.050;-8.660;2022-10-03T15:19:17;101135.16;;;27.82;100.00
71004;BME280;59025;42.050;-8.660;2022-10-03T15:21:51;101141.06;;;27.79;100.00
71004;BME280;59025;42.050;-8.660;2022-10-03T15:24:26;101134.19;;;27.78;100.00
71004;BME280;59025;42.050;-8.660;2022-10-03T15:27:00;101141.44;;;27.73;100.00
71004;BME280;59025;42.050;-8.660;2022-10-03T15:29:33;101111.19;;;27.65;100.00
71004;BME280;59025;42.050;-8.660;2022-10-03T15:32:02;101123.25;;;27.58;100.00
71004;BME280;59025;42.050;-8.660;2022-10-03T15:34:38;101116.22;;;27.53;100.00
71004;BME280;59025;42.050;-8.660;2022-10-03T15:37:13;101115.06;;;27.46;100.00
71004;BME280;59025;42.050;-8.660;2022-10-03T15:39:43;101100.38;;;27.40;100.00
71004;BME280;59025;42.050;-8.660;2022-10-03T15:42:20;101111.25;;;27.38;100.00
71004;BME280;59025;42.050;-8.660;2022-10-03T15:44:53;101109.09;;;27.40;100.00
71004;BME280;59025;42.050;-8.660;2022-10-03T15:47:24;101113.41;;;27.36;100.00
71004;BME280;59025;42.050;-8.660;2022-10-03T15:49:56;101115.06;;;27.32;100.00
71004;BME280;59025;42.050;-8.660;2022-10-03T15:52:32;101119.41;;;27.28;100.00
71004;BME280;59025;42.050;-8.660;2022-10-03T15:55:03;101101.97;;;27.27;100.00
71004;BME280;59025;42.050;-8.660;2022-10-03T15:57:34;101110.97;;;27.26;100.00
71004;BME280;59025;42.050;-8.660;2022-10-03T16:00:03;101100.50;;;27.21;100.00
71004;BME280;59025;42.050;-8.660;2022-10-03T16:02:34;101099.00;;;27.15;100.00
71004;BME280;59025;42.050;-8.660;2022-10-03T16:05:06;101093.06;;;27.10;100.00
71004;BME280;59025;42.050;-8.660;2022-10-03T16:07:54;101104.00;;;27.03;100.00
71004;BME280;59025;42.050;-8.660;2022-10-03T16:10:27;101102.25;;;26.99;100.00
71004;BME280;59025;42.050;-8.660;2022-10-03T16:12:59;101095.31;;;26.89;100.00
71004;BME280;59025;42.050;-8.660;2022-10-03T16:15:39;101111.34;;;26.79;100.00
71004;BME280;59025;42.050;-8.660;2022-10-03T16:18:38;101101.56;;;26.66;100.00
71004;BME280;59025;42.050;-8.660;2022-10-03T16:21:12;101103.09;;;26.54;100.00
71004;BME280;59025;42.050;-8.660;2022-10-03T16:23:41;101106.97;;;26.43;100.00
71004;BME280;59025;42.050;-8.660;2022-10-03T16:26:17;101107.53;;;26.40;100.00
71004;BME280;59025;42.050;-8.660;2022-10-03T16:28:49;101104.09;;;26.26;100.00
71004;BME280;59025;42.050;-8.660;2022-10-03T16:31:20;101102.63;;;26.20;100.00
71004;BME280;59025;42.050;-8.660;2022-10-03T16:33:52;101113.03;;;26.11;100.00
71004;BME280;59025;42.050;-8.660;2022-10-03T16:36:25;101104.13;;;26.07;100.00
71004;BME280;59025;42.050;-8.660;2022-10-03T16:38:58;101105.84;;;25.98;100.00
71004;BME280;59025;42.050;-8.660;2022-10-03T16:41:32;101123.91;;;25.91;100.00
71004;BME280;59025;42.050;-8.660;2022-10-03T16:44:01;101120.81;;;25.84;100.00
71004;BME280;59025;42.050;-8.660;2022-10-03T16:46:33;101136.75;;;25.74;100.00
71004;BME280;59025;42.050;-8.660;2022-10-03T16:49:08;101128.94;;;25.69;100.00
71004;BME280;59025;42.050;-8.660;2022-10-03T16:51:59;101133.84;;;25.57;100.00
71004;BME280;59025;42.050;-8.660;2022-10-03T16:54:28;101131.25;;;25.52;100.00
71004;BME280;59025;42.050;-8.660;2022-10-03T16:56:59;101128.19;;;25.45;100.00